sensor_id;sensor_type;location;lat;lon;timestamp;temperature;humidity
10314;DHT22;5202;49.138;10.090;2022-09-09T00:00:21;13.30;99.90
10314;DHT22;5202;49.138;10.090;2022-09-09T00:02:56;13.30;99.90
10314;DHT22;5202;49.138;10.090;2022-09-09T00:05:33;13.30;99.90
10314;DHT22;5202;49.138;10.090;2022-09-09T00:08:11;13.20;99.90
10314;DHT22;5202;49.138;10.090;2022-09-09T00:10:51;13.20;99.90
10314;DHT22;5202;49.138;10.090;2022-09-09T00:13:29;13.10;99.90
10314;DHT22;5202;49.138;10.090;2022-09-09T00:16:07;13.10;99.90
10314;DHT22;5202;49.138;10.090;2022-09-09T00:18:50;13.00;99.90
10314;DHT22;5202;49.138;10.090;2022-09-09T00:21:25;13.00;99.90
10314;DHT22;5202;49.138;10.090;2022-09-09T00:24:04;13.00;99.90
10314;DHT22;5202;49.138;10.090;2022-09-09T00:26:40;12.90;99.90
10314;DHT22;5202;49.138;10.090;2022-09-09T00:29:17;12.80;99.90
10314;DHT22;5202;49.138;10.090;2022-09-09T00:31:50;12.80;99.90
10314;DHT22;5202;49.138;10.090;2022-09-09T00:34:24;12.80;99.90
10314;DHT22;5202;49.138;10.090;2022-09-09T00:36:55;12.80;99.90
10314;DHT22;5202;49.138;10.090;2022-09-09T00:39:29;12.80;99.90
10314;DHT22;5202;49.138;10.090;2022-09-09T00:42:13;12.80;99.90
10314;DHT22;5202;49.138;10.090;2022-09-09T00:44:52;12.80;99.90
10314;DHT22;5202;49.138;10.090;2022-09-09T00:47:40;12.80;99.90
10314;DHT22;5202;49.138;10.090;2022-09-09T00:50:32;12.80;99.90
10314;DHT22;5202;49.138;10.090;2022-09-09T00:53:22;12.80;99.90
10314;DHT22;5202;49.138;10.090;2022-09-09T00:56:03;12.80;99.90
10314;DHT22;5202;49.138;10.090;2022-09-09T00:58:36;12.80;99.90
10314;DHT22;5202;49.138;10.090;2022-09-09T01:01:06;12.80;99.90
10314;DHT22;5202;49.138;10.090;2022-09-09T01:03:44;12.80;99.90
10314;DHT22;5202;49.138;10.090;2022-09-09T01:06:18;12.80;99.90
10314;DHT22;5202;49.138;10.090;2022-09-09T01:09:04;12.80;99.90
10314;DHT22;5202;49.138;10.090;2022-09-09T01:11:49;12.80;99.90
10314;DHT22;5202;49.138;10.090;2022-09-09T01:14:30;12.70;99.90
10314;DHT22;5202;49.138;10.090;2022-09-09T01:17:11;12.70;99.90
10314;DHT22;5202;49.138;10.090;2022-09-09T01:20:02;12.70;99.90
10314;DHT22;5202;49.138;10.090;2022-09-09T01:22:44;12.70;99.90
10314;DHT22;5202;49.138;10.090;2022-09-09T01:25:28;12.70;99.90
10314;DHT22;5202;49.138;10.090;2022-09-09T01:28:10;12.70;99.90
10314;DHT22;5202;49.138;10.090;2022-09-09T01:30:41;12.70;99.90
10314;DHT22;5202;49.138;10.090;2022-09-09T01:33:15;12.60;99.90
10314;DHT22;5202;49.138;10.090;2022-09-09T01:35:48;12.60;99.90
10314;DHT22;5202;49.138;10.090;2022-09-09T01:38:24;12.70;99.90
10314;DHT22;5202;49.138;10.090;2022-09-09T01:40:53;12.60;99.90
10314;DHT22;5202;49.138;10.090;2022-09-09T01:43:30;12.70;99.90
10314;DHT22;5202;49.138;10.090;2022-09-09T01:46:01;12.70;99.90
10314;DHT22;5202;49.138;10.090;2022-09-09T01:48:31;12.70;99.90
10314;DHT22;5202;49.138;10.090;2022-09-09T01:51:08;12.80;99.90
10314;DHT22;5202;49.138;10.090;2022-09-09T01:53:39;12.80;99.90
10314;DHT22;5202;49.138;10.090;2022-09-09T01:56:19;12.80;99.90
10314;DHT22;5202;49.138;10.090;2022-09-09T01:59:07;12.80;99.90
10314;DHT22;5202;49.138;10.090;2022-09-09T02:01:58;12.90;99.90
10314;DHT22;5202;49.138;10.090;2022-09-09T02:04:41;12.90;99.90
10314;DHT22;5202;49.138;10.090;2022-09-09T02:07:25;13.00;99.90
10314;DHT22;5202;49.138;10.090;2022-09-09T02:10:05;13.00;99.90
10314;DHT22;5202;49.138;10.090;2022-09-09T02:12:45;13.00;99.90
10314;DHT22;5202;49.138;10.090;2022-09-09T02:15:21;13.10;99.90
10314;DHT22;5202;49.138;10.090;2022-09-09T02:17:56;13.10;99.90
10314;DHT22;5202;49.138;10.090;2022-09-09T02:20:26;13.10;99.90
10314;DHT22;5202;49.138;10.090;2022-09-09T02:23:01;13.20;99.90
10314;DHT22;5202;49.138;10.090;2022-09-09T02:25:30;13.20;99.90
10314;DHT22;5202;49.138;10.090;2022-09-09T02:28:08;13.30;99.90
10314;DHT22;5202;49.138;10.090;2022-09-09T02:30:39;13.30;99.90
10314;DHT22;5202;49.138;10.090;2022-09-09T02:33:10;13.30;99.90
10314;DHT22;5202;49.138;10.090;2022-09-09T02:35:50;13.40;99.90
10314;DHT22;5202;49.138;10.090;2022-09-09T02:38:23;13.40;99.90
10314;DHT22;5202;49.138;10.090;2022-09-09T02:41:00;13.40;99.90
10314;DHT22;5202;49.138;10.090;2022-09-09T02:43:31;13.50;99.90
10314;DHT22;5202;49.138;10.090;2022-09-09T02:46:07;13.50;99.90
10314;DHT22;5202;49.138;10.090;2022-09-09T02:48:47;13.50;99.90
10314;DHT22;5202;49.138;10.090;2022-09-09T02:51:24;13.60;99.90
10314;DHT22;5202;49.138;10.090;2022-09-09T02:54:01;13.60;99.90
10314;DHT22;5202;49.138;10.090;2022-09-09T02:56:38;13.60;99.90
10314;DHT22;5202;49.138;10.090;2022-09-09T02:59:09;13.60;99.90
10314;DHT22;5202;49.138;10.090;2022-09-09T03:01:39;13.60;99.90
10314;DHT22;5202;49.138;10.090;2022-09-09T03:04:09;13.60;99.90
10314;DHT22;5202;49.138;10.090;2022-09-09T03:06:38;13.60;99.90
10314;DHT22;5202;49.138;10.090;2022-09-09T03:09:16;13.60;99.90
10314;DHT22;5202;49.138;10.090;2022-09-09T03:11:44;13.60;99.90
10314;DHT22;5202;49.138;10.090;2022-09-09T03:14:15;13.60;99.90
10314;DHT22;5202;49.138;10.090;2022-09-09T03:16:44;13.60;99.90
10314;DHT22;5202;49.138;10.090;2022-09-09T03:19:13;13.60;99.90
10314;DHT22;5202;49.138;10.090;2022-09-09T03:21:41;13.50;99.90
10314;DHT22;5202;49.138;10.090;2022-09-09T03:24:09;13.60;99.90
10314;DHT22;5202;49.138;10.090;2022-09-09T03:26:38;13.50;99.90
10314;DHT22;5202;49.138;10.090;2022-09-09T03:29:10;13.50;99.90
10314;DHT22;5202;49.138;10.090;2022-09-09T03:31:40;13.50;99.90
10314;DHT22;5202;49.138;10.090;2022-09-09T03:34:10;13.40;99.90
10314;DHT22;5202;49.138;10.090;2022-09-09T03:36:40;13.30;99.90
10314;DHT22;5202;49.138;10.090;2022-09-09T03:39:09;13.30;99.90
10314;DHT22;5202;49.138;10.090;2022-09-09T03:41:39;13.20;99.90
10314;DHT22;5202;49.138;10.090;2022-09-09T03:44:08;13.20;99.90
10314;DHT22;5202;49.138;10.090;2022-09-09T03:46:38;13.20;99.90
10314;DHT22;5202;49.138;10.090;2022-09-09T03:49:07;13.10;99.90
10314;DHT22;5202;49.138;10.090;2022-09-09T03:51:38;13.00;99.90
10314;DHT22;5202;49.138;10.090;2022-09-09T03:54:08;13.00;99.90
10314;DHT22;5202;49.138;10.090;2022-09-09T03:56:37;12.90;99.90
10314;DHT22;5202;49.138;10.090;2022-09-09T03:59:09;12.90;99.90
10314;DHT22;5202;49.138;10.090;2022-09-09T04:01:38;12.80;99.90
10314;DHT22;5202;49.138;10.090;2022-09-09T04:04:06;12.70;99.90
10314;DHT22;5202;49.138;10.090;2022-09-09T04:06:35;12.70;99.90
10314;DHT22;5202;49.138;10.090;2022-09-09T04:09:06;12.70;99.90
10314;DHT22;5202;49.138;10.090;2022-09-09T04:11:34;12.60;99.90
10314;DHT22;5202;49.138;10.090;2022-09-09T04:14:03;12.50;99.90
10314;DHT22;5202;49.138;10.090;2022-09-09T04:16:33;12.50;99.90
10314;DHT22;5202;49.138;10.090;2022-09-09T04:19:03;12.50;99.90
10314;DHT22;5202;49.138;10.090;2022-09-09T04:21:34;12.50;99.90
10314;DHT22;5202;49.138;10.090;2022-09-09T04:24:04;12.50;99.90
10314;DHT22;5202;49.138;10.090;2022-09-09T04:26:33;12.40;99.90
10314;DHT22;5202;49.138;10.090;2022-09-09T04:29:02;12.40;99.90
10314;DHT22;5202;49.138;10.090;2022-09-09T04:31:30;12.40;99.90
10314;DHT22;5202;49.138;10.090;2022-09-09T04:34:00;12.40;99.90
10314;DHT22;5202;49.138;10.090;2022-09-09T04:36:32;12.40;99.90
10314;DHT22;5202;49.138;10.090;2022-09-09T04:39:05;12.40;99.90
10314;DHT22;5202;49.138;10.090;2022-09-09T04:41:33;12.40;99.90
10314;DHT22;5202;49.138;10.090;2022-09-09T04:44:05;12.30;99.90
10314;DHT22;5202;49.138;10.090;2022-09-09T04:46:33;12.30;99.90
10314;DHT22;5202;49.138;10.090;2022-09-09T04:49:02;12.30;99.90
10314;DHT22;5202;49.138;10.090;2022-09-09T04:51:31;12.20;99.90
10314;DHT22;5202;49.138;10.090;2022-09-09T04:54:00;12.20;99.90
10314;DHT22;5202;49.138;10.090;2022-09-09T04:56:29;12.20;99.90
10314;DHT22;5202;49.138;10.090;2022-09-09T04:58:59;12.20;99.90
10314;DHT22;5202;49.138;10.090;2022-09-09T05:01:41;12.20;99.90
10314;DHT22;5202;49.138;10.090;2022-09-09T05:04:10;12.20;99.90
10314;DHT22;5202;49.138;10.090;2022-09-09T05:06:39;12.10;99.90
10314;DHT22;5202;49.138;10.090;2022-09-09T05:09:07;12.10;99.90
10314;DHT22;5202;49.138;10.090;2022-09-09T05:11:36;12.10;99.90
10314;DHT22;5202;49.138;10.090;2022-09-09T05:14:19;12.10;99.90
10314;DHT22;5202;49.138;10.090;2022-09-09T05:16:47;12.10;99.90
10314;DHT22;5202;49.138;10.090;2022-09-09T05:19:16;12.20;99.90
10314;DHT22;5202;49.138;10.090;2022-09-09T05:21:48;12.20;99.90
10314;DHT22;5202;49.138;10.090;2022-09-09T05:24:20;12.20;99.90
10314;DHT22;5202;49.138;10.090;2022-09-09T05:26:53;12.30;99.90
10314;DHT22;5202;49.138;10.090;2022-09-09T05:29:24;12.30;99.90
10314;DHT22;5202;49.138;10.090;2022-09-09T05:31:54;12.40;99.90
10314;DHT22;5202;49.138;10.090;2022-09-09T05:34:23;12.40;99.90
10314;DHT22;5202;49.138;10.090;2022-09-09T05:36:52;12.50;99.90
10314;DHT22;5202;49.138;10.090;2022-09-09T05:39:22;12.50;99.90
10314;DHT22;5202;49.138;10.090;2022-09-09T05:41:51;12.50;99.90
10314;DHT22;5202;49.138;10.090;2022-09-09T05:44:22;12.50;99.90
10314;DHT22;5202;49.138;10.090;2022-09-09T05:46:54;12.60;99.90
10314;DHT22;5202;49.138;10.090;2022-09-09T05:49:22;12.70;99.90
10314;DHT22;5202;49.138;10.090;2022-09-09T05:51:51;12.70;99.90
10314;DHT22;5202;49.138;10.090;2022-09-09T05:54:20;12.80;99.90
10314;DHT22;5202;49.138;10.090;2022-09-09T05:56:50;12.90;99.90
10314;DHT22;5202;49.138;10.090;2022-09-09T05:59:21;12.90;99.90
10314;DHT22;5202;49.138;10.090;2022-09-09T06:01:53;13.00;99.90
10314;DHT22;5202;49.138;10.090;2022-09-09T06:04:29;13.20;99.90
10314;DHT22;5202;49.138;10.090;2022-09-09T06:06:59;13.40;99.90
10314;DHT22;5202;49.138;10.090;2022-09-09T06:09:28;13.60;99.90
10314;DHT22;5202;49.138;10.090;2022-09-09T06:11:57;13.70;99.90
10314;DHT22;5202;49.138;10.090;2022-09-09T06:14:27;13.90;99.90
10314;DHT22;5202;49.138;10.090;2022-09-09T06:16:58;14.10;99.90
10314;DHT22;5202;49.138;10.090;2022-09-09T06:19:29;14.20;99.90
10314;DHT22;5202;49.138;10.090;2022-09-09T06:21:58;14.40;99.90
10314;DHT22;5202;49.138;10.090;2022-09-09T06:24:29;14.50;99.90
10314;DHT22;5202;49.138;10.090;2022-09-09T06:27:00;14.50;99.90
10314;DHT22;5202;49.138;10.090;2022-09-09T06:29:33;14.60;99.90
10314;DHT22;5202;49.138;10.090;2022-09-09T06:32:02;14.60;99.90
10314;DHT22;5202;49.138;10.090;2022-09-09T06:34:35;14.80;99.90
10314;DHT22;5202;49.138;10.090;2022-09-09T06:37:03;14.90;99.90
10314;DHT22;5202;49.138;10.090;2022-09-09T06:39:40;15.10;99.90
10314;DHT22;5202;49.138;10.090;2022-09-09T06:42:09;15.20;99.90
10314;DHT22;5202;49.138;10.090;2022-09-09T06:44:44;15.40;99.90
10314;DHT22;5202;49.138;10.090;2022-09-09T06:47:20;15.50;99.80
10314;DHT22;5202;49.138;10.090;2022-09-09T06:49:49;15.50;99.10
10314;DHT22;5202;49.138;10.090;2022-09-09T06:52:18;15.60;98.80
10314;DHT22;5202;49.138;10.090;2022-09-09T06:54:46;15.70;98.50
10314;DHT22;5202;49.138;10.090;2022-09-09T06:57:16;15.80;98.80
10314;DHT22;5202;49.138;10.090;2022-09-09T07:00:07;16.00;98.30
10314;DHT22;5202;49.138;10.090;2022-09-09T07:02:36;16.10;97.90
10314;DHT22;5202;49.138;10.090;2022-09-09T07:05:08;16.30;98.20
10314;DHT22;5202;49.138;10.090;2022-09-09T07:07:38;16.40;97.80
10314;DHT22;5202;49.138;10.090;2022-09-09T07:10:08;16.60;97.60
10314;DHT22;5202;49.138;10.090;2022-09-09T07:12:37;16.70;97.50
10314;DHT22;5202;49.138;10.090;2022-09-09T07:15:10;16.80;97.30
10314;DHT22;5202;49.138;10.090;2022-09-09T07:17:43;17.00;96.60
10314;DHT22;5202;49.138;10.090;2022-09-09T07:20:11;17.10;95.70
10314;DHT22;5202;49.138;10.090;2022-09-09T07:22:41;17.30;95.80
10314;DHT22;5202;49.138;10.090;2022-09-09T07:25:10;17.50;95.10
10314;DHT22;5202;49.138;10.090;2022-09-09T07:27:38;17.60;95.10
10314;DHT22;5202;49.138;10.090;2022-09-09T07:30:11;17.70;94.40
10314;DHT22;5202;49.138;10.090;2022-09-09T07:32:50;17.90;94.60
10314;DHT22;5202;49.138;10.090;2022-09-09T07:35:19;17.90;93.90
10314;DHT22;5202;49.138;10.090;2022-09-09T07:37:47;18.00;93.50
10314;DHT22;5202;49.138;10.090;2022-09-09T07:40:18;18.00;93.20
10314;DHT22;5202;49.138;10.090;2022-09-09T07:42:48;18.10;93.10
10314;DHT22;5202;49.138;10.090;2022-09-09T07:45:18;18.10;92.90
10314;DHT22;5202;49.138;10.090;2022-09-09T07:47:46;18.00;93.00
10314;DHT22;5202;49.138;10.090;2022-09-09T07:50:16;18.10;92.90
10314;DHT22;5202;49.138;10.090;2022-09-09T07:52:44;18.30;92.60
10314;DHT22;5202;49.138;10.090;2022-09-09T07:55:12;18.50;92.90
10314;DHT22;5202;49.138;10.090;2022-09-09T07:57:41;18.50;92.00
10314;DHT22;5202;49.138;10.090;2022-09-09T08:00:11;18.70;92.00
10314;DHT22;5202;49.138;10.090;2022-09-09T08:02:46;18.70;92.00
10314;DHT22;5202;49.138;10.090;2022-09-09T08:05:15;18.80;92.70
10314;DHT22;5202;49.138;10.090;2022-09-09T08:07:44;19.00;92.20
10314;DHT22;5202;49.138;10.090;2022-09-09T08:10:14;19.20;91.30
10314;DHT22;5202;49.138;10.090;2022-09-09T08:12:46;19.20;91.20
10314;DHT22;5202;49.138;10.090;2022-09-09T08:15:35;19.00;91.10
10314;DHT22;5202;49.138;10.090;2022-09-09T08:18:05;19.10;90.80
10314;DHT22;5202;49.138;10.090;2022-09-09T08:20:36;19.00;90.90
10314;DHT22;5202;49.138;10.090;2022-09-09T08:23:04;19.00;91.10
10314;DHT22;5202;49.138;10.090;2022-09-09T08:25:33;18.90;91.10
10314;DHT22;5202;49.138;10.090;2022-09-09T08:28:02;18.90;91.20
10314;DHT22;5202;49.138;10.090;2022-09-09T08:30:30;19.00;91.40
10314;DHT22;5202;49.138;10.090;2022-09-09T08:32:59;19.00;91.00
10314;DHT22;5202;49.138;10.090;2022-09-09T08:35:29;19.00;90.70
10314;DHT22;5202;49.138;10.090;2022-09-09T08:37:59;19.10;90.80
10314;DHT22;5202;49.138;10.090;2022-09-09T08:40:35;19.30;90.90
10314;DHT22;5202;49.138;10.090;2022-09-09T08:43:06;19.10;90.20
10314;DHT22;5202;49.138;10.090;2022-09-09T08:45:37;19.10;90.60
10314;DHT22;5202;49.138;10.090;2022-09-09T08:48:23;19.10;90.70
10314;DHT22;5202;49.138;10.090;2022-09-09T08:51:11;19.10;90.90
10314;DHT22;5202;49.138;10.090;2022-09-09T08:53:44;19.30;90.70
10314;DHT22;5202;49.138;10.090;2022-09-09T08:56:18;19.40;90.80
10314;DHT22;5202;49.138;10.090;2022-09-09T08:58:53;19.60;90.60
10314;DHT22;5202;49.138;10.090;2022-09-09T09:02:00;19.80;90.40
10314;DHT22;5202;49.138;10.090;2022-09-09T09:05:01;20.00;90.00
10314;DHT22;5202;49.138;10.090;2022-09-09T09:07:47;20.00;90.10
10314;DHT22;5202;49.138;10.090;2022-09-09T09:10:38;20.20;90.40
10314;DHT22;5202;49.138;10.090;2022-09-09T09:13:19;20.30;89.60
10314;DHT22;5202;49.138;10.090;2022-09-09T09:15:55;20.50;89.10
10314;DHT22;5202;49.138;10.090;2022-09-09T09:18:26;20.20;88.80
10314;DHT22;5202;49.138;10.090;2022-09-09T09:20:59;19.90;88.80
10314;DHT22;5202;49.138;10.090;2022-09-09T09:23:40;19.70;89.40
10314;DHT22;5202;49.138;10.090;2022-09-09T09:26:11;19.50;89.20
10314;DHT22;5202;49.138;10.090;2022-09-09T09:28:40;19.60;89.60
10314;DHT22;5202;49.138;10.090;2022-09-09T09:31:13;19.80;88.70
10314;DHT22;5202;49.138;10.090;2022-09-09T09:33:48;20.00;88.30
10314;DHT22;5202;49.138;10.090;2022-09-09T09:36:24;20.00;87.60
10314;DHT22;5202;49.138;10.090;2022-09-09T09:39:03;20.00;87.70
10314;DHT22;5202;49.138;10.090;2022-09-09T09:41:53;19.90;87.20
10314;DHT22;5202;49.138;10.090;2022-09-09T09:44:26;19.90;87.40
10314;DHT22;5202;49.138;10.090;2022-09-09T09:47:07;19.80;88.00
10314;DHT22;5202;49.138;10.090;2022-09-09T09:49:40;20.00;87.70
10314;DHT22;5202;49.138;10.090;2022-09-09T09:52:23;20.10;86.50
10314;DHT22;5202;49.138;10.090;2022-09-09T09:54:55;20.30;86.50
10314;DHT22;5202;49.138;10.090;2022-09-09T09:57:31;20.40;85.50
10314;DHT22;5202;49.138;10.090;2022-09-09T10:00:13;20.60;84.80
10314;DHT22;5202;49.138;10.090;2022-09-09T10:02:51;20.70;84.70
10314;DHT22;5202;49.138;10.090;2022-09-09T10:05:25;20.70;83.90
10314;DHT22;5202;49.138;10.090;2022-09-09T10:08:10;20.60;83.40
10314;DHT22;5202;49.138;10.090;2022-09-09T10:10:59;20.50;83.50
10314;DHT22;5202;49.138;10.090;2022-09-09T10:13:37;20.30;83.80
10314;DHT22;5202;49.138;10.090;2022-09-09T10:16:20;20.20;84.90
10314;DHT22;5202;49.138;10.090;2022-09-09T10:18:59;20.10;83.60
10314;DHT22;5202;49.138;10.090;2022-09-09T10:21:44;20.00;83.90
10314;DHT22;5202;49.138;10.090;2022-09-09T10:24:43;20.00;84.30
10314;DHT22;5202;49.138;10.090;2022-09-09T10:27:29;20.10;85.40
10314;DHT22;5202;49.138;10.090;2022-09-09T10:30:11;20.30;85.00
10314;DHT22;5202;49.138;10.090;2022-09-09T10:32:48;20.50;84.30
10314;DHT22;5202;49.138;10.090;2022-09-09T10:35:27;20.60;84.60
10314;DHT22;5202;49.138;10.090;2022-09-09T10:38:11;20.80;84.40
10314;DHT22;5202;49.138;10.090;2022-09-09T10:41:09;21.10;82.70
10314;DHT22;5202;49.138;10.090;2022-09-09T10:44:06;21.00;82.30
10314;DHT22;5202;49.138;10.090;2022-09-09T10:46:56;20.90;82.50
10314;DHT22;5202;49.138;10.090;2022-09-09T10:49:53;20.80;83.30
10314;DHT22;5202;49.138;10.090;2022-09-09T10:52:40;20.60;83.90
10314;DHT22;5202;49.138;10.090;2022-09-09T10:55:17;20.50;83.90
10314;DHT22;5202;49.138;10.090;2022-09-09T10:57:48;20.40;83.40
10314;DHT22;5202;49.138;10.090;2022-09-09T11:00:20;20.20;83.30
10314;DHT22;5202;49.138;10.090;2022-09-09T11:02:54;20.20;83.80
10314;DHT22;5202;49.138;10.090;2022-09-09T11:05:27;20.30;82.90
10314;DHT22;5202;49.138;10.090;2022-09-09T11:07:59;20.20;83.50
10314;DHT22;5202;49.138;10.090;2022-09-09T11:10:37;20.10;83.30
10314;DHT22;5202;49.138;10.090;2022-09-09T11:13:11;20.00;83.50
10314;DHT22;5202;49.138;10.090;2022-09-09T11:15:49;20.00;83.00
10314;DHT22;5202;49.138;10.090;2022-09-09T11:18:20;19.90;83.60
10314;DHT22;5202;49.138;10.090;2022-09-09T11:20:51;19.80;83.90
10314;DHT22;5202;49.138;10.090;2022-09-09T11:23:26;19.60;88.80
10314;DHT22;5202;49.138;10.090;2022-09-09T11:25:59;19.30;90.00
10314;DHT22;5202;49.138;10.090;2022-09-09T11:28:40;19.30;88.70
10314;DHT22;5202;49.138;10.090;2022-09-09T11:31:38;19.60;86.80
10314;DHT22;5202;49.138;10.090;2022-09-09T11:34:33;20.00;87.40
10314;DHT22;5202;49.138;10.090;2022-09-09T11:40:27;20.50;86.70
10314;DHT22;5202;49.138;10.090;2022-09-09T11:43:07;20.70;85.60
10314;DHT22;5202;49.138;10.090;2022-09-09T11:45:40;20.90;82.60
10314;DHT22;5202;49.138;10.090;2022-09-09T11:48:26;21.00;81.40
10314;DHT22;5202;49.138;10.090;2022-09-09T11:50:59;21.00;79.40
10314;DHT22;5202;49.138;10.090;2022-09-09T11:53:30;21.10;80.00
10314;DHT22;5202;49.138;10.090;2022-09-09T11:56:29;21.30;76.80
10314;DHT22;5202;49.138;10.090;2022-09-09T11:59:00;21.50;76.20
10314;DHT22;5202;49.138;10.090;2022-09-09T12:01:39;21.90;74.00
10314;DHT22;5202;49.138;10.090;2022-09-09T12:04:29;21.80;77.80
10314;DHT22;5202;49.138;10.090;2022-09-09T12:07:01;21.60;79.60
10314;DHT22;5202;49.138;10.090;2022-09-09T12:09:39;21.90;79.20
10314;DHT22;5202;49.138;10.090;2022-09-09T12:12:23;22.10;78.00
10314;DHT22;5202;49.138;10.090;2022-09-09T12:15:18;21.90;77.50
10314;DHT22;5202;49.138;10.090;2022-09-09T12:17:52;21.60;77.60
10314;DHT22;5202;49.138;10.090;2022-09-09T12:20:33;21.40;78.00
10314;DHT22;5202;49.138;10.090;2022-09-09T12:23:15;21.40;78.30
10314;DHT22;5202;49.138;10.090;2022-09-09T12:25:56;21.40;78.20
10314;DHT22;5202;49.138;10.090;2022-09-09T12:28:45;21.20;79.10
10314;DHT22;5202;49.138;10.090;2022-09-09T12:31:22;21.20;79.20
10314;DHT22;5202;49.138;10.090;2022-09-09T12:33:55;21.40;79.80
10314;DHT22;5202;49.138;10.090;2022-09-09T12:36:27;21.70;78.00
10314;DHT22;5202;49.138;10.090;2022-09-09T12:38:59;21.30;76.60
10314;DHT22;5202;49.138;10.090;2022-09-09T12:41:38;21.20;78.10
10314;DHT22;5202;49.138;10.090;2022-09-09T12:44:09;20.70;79.30
10314;DHT22;5202;49.138;10.090;2022-09-09T12:46:40;20.50;79.60
10314;DHT22;5202;49.138;10.090;2022-09-09T12:49:26;20.00;80.50
10314;DHT22;5202;49.138;10.090;2022-09-09T12:51:59;19.90;81.60
10314;DHT22;5202;49.138;10.090;2022-09-09T12:54:31;19.80;82.10
10314;DHT22;5202;49.138;10.090;2022-09-09T12:57:01;19.90;83.00
10314;DHT22;5202;49.138;10.090;2022-09-09T12:59:36;19.90;83.30
10314;DHT22;5202;49.138;10.090;2022-09-09T13:02:16;19.70;84.40
10314;DHT22;5202;49.138;10.090;2022-09-09T13:04:48;19.20;86.40
10314;DHT22;5202;49.138;10.090;2022-09-09T13:07:19;18.80;88.00
10314;DHT22;5202;49.138;10.090;2022-09-09T13:09:49;18.40;89.60
10314;DHT22;5202;49.138;10.090;2022-09-09T13:12:19;18.10;90.30
10314;DHT22;5202;49.138;10.090;2022-09-09T13:14:51;17.90;92.70
10314;DHT22;5202;49.138;10.090;2022-09-09T13:17:23;17.50;94.70
10314;DHT22;5202;49.138;10.090;2022-09-09T13:19:52;17.10;95.90
10314;DHT22;5202;49.138;10.090;2022-09-09T13:22:29;16.80;97.40
10314;DHT22;5202;49.138;10.090;2022-09-09T13:25:02;16.80;98.70
10314;DHT22;5202;49.138;10.090;2022-09-09T13:27:34;16.90;98.70
10314;DHT22;5202;49.138;10.090;2022-09-09T13:30:20;17.00;99.20
10314;DHT22;5202;49.138;10.090;2022-09-09T13:33:05;17.30;99.20
10314;DHT22;5202;49.138;10.090;2022-09-09T13:35:46;17.50;99.90
10314;DHT22;5202;49.138;10.090;2022-09-09T13:38:18;17.70;99.00
10314;DHT22;5202;49.138;10.090;2022-09-09T13:40:54;17.90;98.40
10314;DHT22;5202;49.138;10.090;2022-09-09T13:43:25;18.10;99.20
10314;DHT22;5202;49.138;10.090;2022-09-09T13:45:55;18.30;99.90
10314;DHT22;5202;49.138;10.090;2022-09-09T13:48:25;18.50;99.80
10314;DHT22;5202;49.138;10.090;2022-09-09T13:50:56;18.60;98.60
10314;DHT22;5202;49.138;10.090;2022-09-09T13:53:26;18.80;98.80
10314;DHT22;5202;49.138;10.090;2022-09-09T13:55:55;18.70;95.80
10314;DHT22;5202;49.138;10.090;2022-09-09T13:58:24;18.70;96.10
10314;DHT22;5202;49.138;10.090;2022-09-09T14:00:53;19.00;96.30
10314;DHT22;5202;49.138;10.090;2022-09-09T14:03:21;19.60;94.40
10314;DHT22;5202;49.138;10.090;2022-09-09T14:05:58;19.80;94.50
10314;DHT22;5202;49.138;10.090;2022-09-09T14:08:29;20.30;93.20
10314;DHT22;5202;49.138;10.090;2022-09-09T14:11:04;20.50;93.70
10314;DHT22;5202;49.138;10.090;2022-09-09T14:13:32;20.20;92.50
10314;DHT22;5202;49.138;10.090;2022-09-09T14:16:00;19.80;92.50
10314;DHT22;5202;49.138;10.090;2022-09-09T14:18:29;19.60;93.40
10314;DHT22;5202;49.138;10.090;2022-09-09T14:20:57;19.30;93.20
10314;DHT22;5202;49.138;10.090;2022-09-09T14:23:25;19.20;91.10
10314;DHT22;5202;49.138;10.090;2022-09-09T14:25:55;18.90;90.90
10314;DHT22;5202;49.138;10.090;2022-09-09T14:28:24;18.80;91.80
10314;DHT22;5202;49.138;10.090;2022-09-09T14:31:12;18.70;90.30
10314;DHT22;5202;49.138;10.090;2022-09-09T14:33:40;18.60;91.30
10314;DHT22;5202;49.138;10.090;2022-09-09T14:36:09;18.50;90.70
10314;DHT22;5202;49.138;10.090;2022-09-09T14:38:38;18.70;91.20
10314;DHT22;5202;49.138;10.090;2022-09-09T14:41:10;18.80;90.80
10314;DHT22;5202;49.138;10.090;2022-09-09T14:43:39;18.80;90.30
10314;DHT22;5202;49.138;10.090;2022-09-09T14:46:08;18.90;90.50
10314;DHT22;5202;49.138;10.090;2022-09-09T14:48:37;19.00;90.60
10314;DHT22;5202;49.138;10.090;2022-09-09T14:51:08;18.90;88.00
10314;DHT22;5202;49.138;10.090;2022-09-09T14:53:36;18.90;88.60
10314;DHT22;5202;49.138;10.090;2022-09-09T14:56:08;19.20;89.20
10314;DHT22;5202;49.138;10.090;2022-09-09T14:58:37;19.50;87.20
10314;DHT22;5202;49.138;10.090;2022-09-09T15:01:07;19.90;87.80
10314;DHT22;5202;49.138;10.090;2022-09-09T15:03:37;20.40;86.10
10314;DHT22;5202;49.138;10.090;2022-09-09T15:06:07;20.70;82.10
10314;DHT22;5202;49.138;10.090;2022-09-09T15:08:37;20.70;80.80
10314;DHT22;5202;49.138;10.090;2022-09-09T15:11:10;20.60;80.40
10314;DHT22;5202;49.138;10.090;2022-09-09T15:13:41;20.60;80.30
10314;DHT22;5202;49.138;10.090;2022-09-09T15:16:12;20.80;80.90
10314;DHT22;5202;49.138;10.090;2022-09-09T15:18:41;20.80;79.70
10314;DHT22;5202;49.138;10.090;2022-09-09T15:21:12;20.80;80.20
10314;DHT22;5202;49.138;10.090;2022-09-09T15:23:41;20.90;79.30
10314;DHT22;5202;49.138;10.090;2022-09-09T15:26:11;21.00;78.70
10314;DHT22;5202;49.138;10.090;2022-09-09T15:28:41;21.00;76.60
10314;DHT22;5202;49.138;10.090;2022-09-09T15:31:14;20.90;77.40
10314;DHT22;5202;49.138;10.090;2022-09-09T15:33:47;21.00;78.20
10314;DHT22;5202;49.138;10.090;2022-09-09T15:36:17;21.10;77.50
10314;DHT22;5202;49.138;10.090;2022-09-09T15:38:47;21.00;77.20
10314;DHT22;5202;49.138;10.090;2022-09-09T15:41:17;20.70;78.00
10314;DHT22;5202;49.138;10.090;2022-09-09T15:43:48;20.60;78.60
10314;DHT22;5202;49.138;10.090;2022-09-09T15:46:26;20.40;79.20
10314;DHT22;5202;49.138;10.090;2022-09-09T15:48:58;20.20;79.50
10314;DHT22;5202;49.138;10.090;2022-09-09T15:51:30;20.00;79.80
10314;DHT22;5202;49.138;10.090;2022-09-09T15:54:16;19.90;80.30
10314;DHT22;5202;49.138;10.090;2022-09-09T15:56:51;20.10;80.30
10314;DHT22;5202;49.138;10.090;2022-09-09T15:59:22;20.30;79.50
10314;DHT22;5202;49.138;10.090;2022-09-09T16:01:50;20.50;79.10
10314;DHT22;5202;49.138;10.090;2022-09-09T16:04:23;20.50;78.40
10314;DHT22;5202;49.138;10.090;2022-09-09T16:06:54;20.60;78.40
10314;DHT22;5202;49.138;10.090;2022-09-09T16:09:26;20.70;78.60
10314;DHT22;5202;49.138;10.090;2022-09-09T16:11:57;20.70;82.20
10314;DHT22;5202;49.138;10.090;2022-09-09T16:14:27;20.60;84.80
10314;DHT22;5202;49.138;10.090;2022-09-09T16:17:00;20.50;87.20